EDLW

Dortmund Airport

Dortmund, Germany
TAF EDLW 181100Z 1812/1912 23014KT CAVOK TEMPO 1812/1816 23015G25KT BECMG 1817/1820 21005KT BECMG 1903/1905 19010KT
Issued Valid From Valid To
Sep-18 @ 11:00 UTC
(7 hours ago)
Sep-18 @ 12:00 UTC
(6 hours ago)
Sep-19 @ 12:00 UTC
(in 18 hours)
Expired Click to View Sep-18 @ 12:00 to Sep-18 @ 17:00
TAF EDLW 181100Z 1812/1912 23014KT CAVOK
Wind Visibility Clouds Conditions
230° at 14 knots 10,000+ meters
  • No significant clouds
Expired Click to View Sep-18 @ 12:00 to Sep-18 @ 16:00
TEMPO 1812/1816 23015G25KT
Wind
230° at 15 knots
 Gusting to 25 knots
Becoming Sep-18 @ 17:00 to Sep-19 @ 03:00
BECMG 1817/1820 21005KT
Wind Visibility Clouds Conditions
210° at 5 knots 10,000+ meters
  • No significant clouds
Becoming Sep-19 @ 03:00 to Sep-19 @ 12:00
BECMG 1903/1905 19010KT
Wind Visibility Clouds Conditions
190° at 10 knots 10,000+ meters
  • No significant clouds
TAF EDLW 181100Z 1812/1912 23014KT CAVOK TEMPO 1812/1816 23015G25KT BECMG 1817/1820 21005KT BECMG 1903/1905 19010KT
Issued Sep-18 @ 11:00 UTC
(7 hours ago)
Valid From Sep-18 @ 12:00 UTC
(6 hours ago)
Valid To Sep-19 @ 12:00 UTC
(in 18 hours)
Sep-18 @ 12:00 - Sep-18 @ 17:00
Wind Visibility
230° at 14 knots 10,000+ meters
Clouds
  • No significant clouds
Conditions
Sep-18 @ 12:00 - Sep-18 @ 16:00
Wind
230° at 15 knots
 Gusting to 25 knots
Becoming Sep-18 @ 17:00 - Sep-19 @ 03:00
Wind Visibility
210° at 5 knots 10,000+ meters
Clouds
  • No significant clouds
Conditions
Becoming Sep-19 @ 03:00 - Sep-19 @ 12:00
Wind Visibility
190° at 10 knots 10,000+ meters
Clouds
  • No significant clouds
Conditions